Guanaja, Honduras
Current Conditions -  °F | °C
As of 6:00 PM on Monday 26 Jan 2015 (Local Time) from MHRO Reporting Station
Broken Clouds Broken Clouds  
Wind Chill: 75°   Ceiling: 1800
Heat Index: 75°   Visibility: 6mi
Dew Point: 63°   Wind: 9mph
Humidity: 65%   Direction: 330°NNW
Pressure: 30.06"   Gusts: NA
Location:  16.43°N, 85.88°W
Report Text: MHRO 270000Z 33008KT 9999 BKN018 BKN070 24/17 Q1018 A3006 NOSIG
Loading
Personal Weather Stations






























Interactive Weather Map New forecast layout! Learn more

10-Day Weather Forecast

Advertisements
Track Severe Weather on mobile